createdAt,value
2022-11-29T00:38:07.576Z,3.68
2022-11-29T00:58:07.584Z,3.68
2022-11-29T01:38:07.866Z,3.79
2022-11-29T01:58:07.880Z,3.72
2022-11-29T02:18:07.770Z,3.64
2022-11-29T02:38:07.984Z,3.66
2022-11-29T02:58:07.872Z,3.6
2022-11-29T03:18:07.987Z,3.63
2022-11-29T03:38:08.075Z,3.55
2022-11-29T03:58:08.125Z,3.47
2022-11-29T04:18:08.073Z,3.46
2022-11-29T04:38:08.114Z,3.53
2022-11-29T04:58:08.179Z,3.6
2022-11-29T05:18:08.266Z,3.63
2022-11-29T05:58:08.334Z,3.72
2022-11-29T06:18:08.351Z,3.76
2022-11-29T06:38:08.423Z,3.81
2022-11-29T06:58:08.413Z,3.91
2022-11-29T07:18:08.580Z,3.97
2022-11-29T07:38:08.595Z,4.06
2022-11-29T07:58:08.605Z,4.29
2022-11-29T08:18:08.608Z,4.52
2022-11-29T08:38:08.652Z,4.68
2022-11-29T08:58:08.768Z,4.9
2022-11-29T09:18:08.727Z,5.15
2022-11-29T09:38:08.882Z,5.33
2022-11-29T09:58:08.870Z,5.35
2022-11-29T10:18:08.929Z,5.16
2022-11-29T10:38:31.054Z,5.28
2022-11-29T10:58:09.013Z,5.54
2022-11-29T11:18:08.987Z,5.53
2022-11-29T11:38:09.063Z,5.71
2022-11-29T11:58:10.463Z,5.68
2022-11-29T12:18:09.143Z,5.72
2022-11-29T12:38:09.177Z,5.56
2022-11-29T12:58:09.402Z,5.52
2022-11-29T13:18:09.249Z,5.62
2022-11-29T13:38:09.448Z,5.45
2022-11-29T13:58:18.009Z,5.57
2022-11-29T14:18:09.564Z,5.67
2022-11-29T14:38:09.408Z,5.61
2022-11-29T14:58:09.510Z,5.57
2022-11-29T15:18:09.645Z,5.5
2022-11-29T15:58:09.679Z,5.49
2022-11-29T16:18:09.778Z,5.46
2022-11-29T16:38:09.695Z,5.5
2022-11-29T16:58:09.778Z,5.53
2022-11-29T17:18:09.877Z,5.54
2022-11-29T17:38:09.884Z,5.53
2022-11-29T17:58:09.885Z,5.47
2022-11-29T18:18:09.898Z,5.43
2022-11-29T18:38:15.499Z,5.44
2022-11-29T18:58:10.012Z,5.4
2022-11-29T19:18:10.066Z,5.41
2022-11-29T19:38:10.246Z,5.46
2022-11-29T19:58:10.178Z,5.49
2022-11-29T20:18:10.299Z,5.48
2022-11-29T20:38:10.278Z,5.5
2022-11-29T20:58:10.291Z,5.53
2022-11-29T21:18:10.316Z,5.56
2022-11-29T21:38:10.514Z,5.58
2022-11-29T22:18:10.784Z,5.58
2022-11-29T22:38:10.613Z,5.58
2022-11-29T22:58:10.631Z,5.59
2022-11-29T23:18:10.616Z,5.58
2022-11-29T23:38:10.629Z,5.56
2022-11-29T23:58:10.730Z,5.58
